Time;durP1;ratioP1;P1;durP2;ratioP2;P2;SDS_P1;SDS_P2;PMS_P1;PMS_P2;Temp;Humidity;BMP_temperature;BMP_pressure;BME280_temperature;BME280_humidity;BME280_pressure;Samples;Min_cycle;Max_cycle;Signal;HPM_P1;HPM_P2
2024/02/20 00:00:13;;;;;;;8.57;4.88;;;7.30;99.90;;;;;;5078965;28;20035;-69
2024/02/20 00:02:41;;;;;;;7.90;4.25;;;7.30;99.90;;;;;;5091525;28;20161;-68
2024/02/20 00:05:08;;;;;;;8.75;4.13;;;7.30;99.90;;;;;;5085862;28;20055;-69
2024/02/20 00:07:37;;;;;;;7.65;4.45;;;7.40;99.90;;;;;;5075841;28;20024;-69
2024/02/20 00:10:06;;;;;;;8.07;4.03;;;7.40;99.90;;;;;;5078565;28;20438;-69
2024/02/20 00:12:32;;;;;;;8.48;4.25;;;7.40;99.90;;;;;;5091391;28;20032;-69
2024/02/20 00:14:59;;;;;;;7.25;3.80;;;7.30;99.90;;;;;;5090790;28;20028;-69
2024/02/20 00:17:24;;;;;;;6.88;4.00;;;7.30;99.90;;;;;;5091457;28;20043;-69
2024/02/20 00:19:50;;;;;;;7.45;3.90;;;7.30;99.90;;;;;;5086834;28;20040;-69
2024/02/20 00:22:15;;;;;;;6.95;3.78;;;7.30;99.90;;;;;;5085837;28;20040;-68
2024/02/20 00:24:42;;;;;;;9.23;4.85;;;7.40;99.90;;;;;;5079889;28;20024;-74
2024/02/20 00:27:08;;;;;;;7.32;4.18;;;7.30;99.90;;;;;;5089098;28;20032;-69
2024/02/20 00:29:33;;;;;;;8.38;4.65;;;7.30;99.90;;;;;;5062824;28;20106;-69
2024/02/20 00:31:59;;;;;;;8.38;4.30;;;7.30;99.90;;;;;;5090598;28;20020;-69
2024/02/20 00:34:24;;;;;;;6.25;4.13;;;7.30;99.90;;;;;;5108036;28;20047;-70
2024/02/20 00:36:52;;;;;;;8.18;4.50;;;7.30;99.90;;;;;;5105812;28;20469;-71
2024/02/20 00:39:17;;;;;;;10.40;4.70;;;7.30;99.90;;;;;;5107746;28;20031;-70
2024/02/20 00:41:43;;;;;;;10.18;4.32;;;7.30;99.90;;;;;;5110642;28;20058;-76
2024/02/20 00:44:11;;;;;;;8.48;4.53;;;7.30;99.90;;;;;;5103052;28;20490;-70
2024/02/20 00:46:37;;;;;;;7.50;4.57;;;7.30;99.90;;;;;;5111751;28;20024;-68
2024/02/20 00:49:03;;;;;;;10.10;5.55;;;7.40;99.90;;;;;;5100041;28;20028;-70
2024/02/20 00:51:28;;;;;;;8.63;4.78;;;7.40;99.90;;;;;;5107817;28;20489;-70
2024/02/20 00:53:54;;;;;;;9.38;4.70;;;7.30;99.90;;;;;;5099350;28;20100;-76
2024/02/20 00:56:20;;;;;;;7.47;4.03;;;7.30;99.90;;;;;;5104485;28;20055;-72
2024/02/20 00:58:46;;;;;;;8.20;3.75;;;7.30;99.90;;;;;;5110120;28;20440;-73
2024/02/20 01:01:12;;;;;;;6.50;3.47;;;7.40;99.90;;;;;;5097314;28;20062;-68
2024/02/20 01:03:39;;;;;;;6.38;3.40;;;7.30;99.90;;;;;;5111435;28;20058;-68
2024/02/20 01:06:07;;;;;;;6.32;3.55;;;7.30;99.90;;;;;;5109376;28;20449;-68
2024/02/20 01:08:38;;;;;;;7.88;3.67;;;7.20;99.90;;;;;;5111292;28;20456;-69
2024/02/20 01:11:04;;;;;;;6.63;3.55;;;7.10;99.90;;;;;;5100717;28;20065;-69
2024/02/20 01:13:30;;;;;;;5.10;2.92;;;7.00;99.90;;;;;;5100944;28;20098;-69
2024/02/20 01:15:55;;;;;;;6.78;3.30;;;7.00;99.90;;;;;;5095584;28;20080;-69
2024/02/20 01:18:21;;;;;;;5.68;3.25;;;7.00;99.90;;;;;;5111411;28;20398;-69
2024/02/20 01:20:47;;;;;;;6.88;3.30;;;7.00;99.90;;;;;;5112619;28;20394;-69
2024/02/20 01:23:13;;;;;;;6.82;2.90;;;7.00;99.90;;;;;;5119834;28;20030;-68
2024/02/20 01:25:38;;;;;;;7.18;3.25;;;7.00;99.90;;;;;;5110867;28;20113;-68
2024/02/20 01:28:04;;;;;;;6.80;2.97;;;7.00;99.90;;;;;;5107593;28;20027;-69
2024/02/20 01:30:30;;;;;;;7.38;3.17;;;7.00;99.90;;;;;;5105813;28;20032;-69
2024/02/20 01:32:57;;;;;;;8.90;3.60;;;7.00;99.90;;;;;;5098027;28;20665;-69
2024/02/20 01:35:23;;;;;;;9.93;3.15;;;7.10;99.90;;;;;;5103986;28;20081;-69
2024/02/20 01:37:49;;;;;;;5.22;3.00;;;7.10;99.90;;;;;;5100118;28;20023;-69
2024/02/20 01:40:16;;;;;;;7.40;3.25;;;7.00;99.90;;;;;;5106166;28;20030;-69
2024/02/20 01:42:43;;;;;;;6.20;3.28;;;7.00;99.90;;;;;;5095918;28;20103;-75
2024/02/20 01:45:09;;;;;;;6.05;3.00;;;7.00;99.90;;;;;;5093203;28;20051;-71
2024/02/20 01:47:39;;;;;;;8.07;3.38;;;7.10;99.90;;;;;;5103597;28;20119;-69
2024/02/20 01:50:06;;;;;;;6.93;3.17;;;7.00;99.90;;;;;;5111318;28;20074;-70
2024/02/20 01:52:32;;;;;;;5.97;3.53;;;6.90;99.90;;;;;;5113785;28;20143;-69
2024/02/20 01:55:01;;;;;;;6.95;3.60;;;6.90;99.90;;;;;;5099898;28;20135;-69
2024/02/20 01:57:26;;;;;;;8.93;3.45;;;6.90;99.90;;;;;;5107367;28;20106;-70
2024/02/20 01:59:55;;;;;;;12.20;4.05;;;7.00;99.90;;;;;;5098475;28;20361;-69
2024/02/20 02:02:21;;;;;;;6.90;3.25;;;7.00;99.90;;;;;;5114812;28;20038;-69
2024/02/20 02:04:46;;;;;;;7.47;3.15;;;7.00;99.90;;;;;;5109399;28;20127;-70
2024/02/20 02:07:12;;;;;;;8.73;3.53;;;7.00;99.90;;;;;;5110358;28;20410;-69
2024/02/20 02:09:38;;;;;;;7.70;3.08;;;6.90;99.90;;;;;;5096892;28;20070;-69
2024/02/20 02:12:04;;;;;;;7.35;3.42;;;6.90;99.90;;;;;;5101982;28;20024;-70
2024/02/20 02:14:30;;;;;;;6.90;3.55;;;7.00;99.90;;;;;;5097026;28;20381;-69
2024/02/20 02:16:56;;;;;;;8.07;3.40;;;7.10;99.90;;;;;;5113263;28;20024;-69
2024/02/20 02:19:21;;;;;;;6.93;3.35;;;7.00;99.90;;;;;;5113635;28;20024;-69
2024/02/20 02:21:47;;;;;;;7.35;3.72;;;7.10;99.90;;;;;;5112959;28;20539;-69
2024/02/20 02:24:13;;;;;;;6.93;3.03;;;7.20;99.90;;;;;;5099545;28;20023;-69
2024/02/20 02:26:38;;;;;;;8.77;3.78;;;7.20;99.90;;;;;;5105668;28;20076;-71
2024/02/20 02:29:04;;;;;;;4.75;3.10;;;7.20;99.90;;;;;;5111906;28;20028;-69
2024/02/20 02:31:30;;;;;;;7.85;3.50;;;7.30;99.90;;;;;;5113573;28;20043;-69
2024/02/20 02:33:56;;;;;;;10.65;3.33;;;7.20;99.90;;;;;;5106278;28;20059;-69
2024/02/20 02:36:24;;;;;;;5.40;3.08;;;7.20;99.90;;;;;;5103422;28;20142;-69
2024/02/20 02:38:51;;;;;;;6.97;2.95;;;7.20;99.90;;;;;;5112508;28;20043;-71
2024/02/20 02:41:18;;;;;;;8.85;3.00;;;7.20;99.90;;;;;;5109846;28;20032;-69
2024/02/20 02:43:44;;;;;;;7.53;2.60;;;7.30;99.90;;;;;;5106712;28;20027;-72
2024/02/20 02:46:13;;;;;;;6.25;2.17;;;7.30;99.90;;;;;;5104052;28;20039;-69
2024/02/20 02:48:39;;;;;;;10.45;2.70;;;7.30;99.90;;;;;;5092852;28;20095;-69
2024/02/20 02:51:08;;;;;;;9.98;2.42;;;7.30;99.90;;;;;;5109544;28;20027;-69
2024/02/20 02:53:34;;;;;;;12.43;2.67;;;7.30;99.90;;;;;;5105429;28;20082;-71
2024/02/20 02:56:00;;;;;;;9.68;2.30;;;7.30;99.90;;;;;;5105774;28;20023;-69
2024/02/20 02:58:25;;;;;;;6.10;2.13;;;7.30;99.90;;;;;;5106548;28;20039;-69
2024/02/20 03:00:51;;;;;;;7.93;2.53;;;7.30;99.90;;;;;;5105165;28;20472;-69
2024/02/20 03:03:16;;;;;;;9.13;2.22;;;7.20;99.90;;;;;;5105380;28;20038;-70
2024/02/20 03:05:42;;;;;;;6.85;2.50;;;7.20;99.90;;;;;;5105589;28;20385;-75
2024/02/20 03:08:10;;;;;;;7.28;1.95;;;7.10;99.90;;;;;;5113216;28;20077;-69
2024/02/20 03:10:37;;;;;;;6.15;2.55;;;7.20;99.90;;;;;;5093227;28;20476;-69
2024/02/20 03:13:03;;;;;;;9.13;3.00;;;7.10;99.90;;;;;;5099379;28;20126;-69
2024/02/20 03:15:29;;;;;;;7.53;2.30;;;7.20;99.90;;;;;;5112886;28;20085;-69
2024/02/20 03:17:55;;;;;;;10.55;2.10;;;7.20;99.90;;;;;;5105255;28;20036;-67
2024/02/20 03:20:21;;;;;;;10.80;2.47;;;7.20;99.90;;;;;;5108629;28;20035;-67
2024/02/20 03:22:47;;;;;;;11.95;2.92;;;7.30;99.90;;;;;;5105236;28;20168;-67
2024/02/20 03:25:15;;;;;;;10.65;3.30;;;7.30;99.90;;;;;;5102492;28;20043;-67
2024/02/20 03:27:41;;;;;;;10.10;2.42;;;7.20;99.90;;;;;;5112572;28;20068;-67
2024/02/20 03:30:07;;;;;;;9.88;2.60;;;7.20;99.90;;;;;;5111893;28;20043;-67
2024/02/20 03:32:33;;;;;;;9.30;2.67;;;7.20;99.90;;;;;;5112200;28;20380;-67
2024/02/20 03:34:59;;;;;;;7.50;2.60;;;7.10;99.90;;;;;;5100249;28;20035;-67
2024/02/20 03:37:25;;;;;;;8.32;2.45;;;7.20;99.90;;;;;;5091446;28;20031;-67
2024/02/20 03:39:51;;;;;;;6.82;2.60;;;7.20;99.90;;;;;;5099909;28;20106;-67
2024/02/20 03:42:17;;;;;;;8.13;2.70;;;7.20;99.90;;;;;;5107347;28;20530;-67
2024/02/20 03:44:43;;;;;;;7.65;2.58;;;7.20;99.90;;;;;;5091037;28;20016;-67
2024/02/20 03:47:09;;;;;;;15.40;2.97;;;7.20;99.90;;;;;;5109104;28;20110;-66
2024/02/20 03:49:35;;;;;;;13.93;3.17;;;7.20;99.90;;;;;;5101875;28;20107;-66
2024/02/20 03:52:01;;;;;;;10.40;3.03;;;7.20;99.90;;;;;;5105337;28;20044;-67
2024/02/20 03:54:26;;;;;;;9.45;2.88;;;7.20;99.90;;;;;;5109815;28;20026;-68
2024/02/20 03:56:52;;;;;;;12.15;3.70;;;7.10;99.90;;;;;;5098616;28;20034;-68
2024/02/20 03:59:17;;;;;;;7.30;2.85;;;7.00;99.90;;;;;;5097358;28;20034;-68
2024/02/20 04:01:43;;;;;;;15.63;2.92;;;6.80;99.90;;;;;;5098249;28;20490;-69
2024/02/20 04:04:10;;;;;;;5.72;2.85;;;6.70;99.90;;;;;;5111742;28;20055;-68
2024/02/20 04:06:38;;;;;;;13.98;3.58;;;6.60;99.90;;;;;;5112510;28;20020;-68
2024/02/20 04:09:04;;;;;;;13.82;3.45;;;6.60;99.90;;;;;;5103539;28;20024;-69
2024/02/20 04:11:33;;;;;;;10.35;3.03;;;6.70;99.90;;;;;;5103325;28;20043;-68
2024/02/20 04:13:59;;;;;;;9.40;2.92;;;6.70;99.90;;;;;;5104082;28;20063;-68
2024/02/20 04:16:25;;;;;;;13.70;3.47;;;6.70;99.90;;;;;;5112058;28;20031;-68
2024/02/20 04:18:51;;;;;;;11.95;3.50;;;6.80;99.90;;;;;;5110134;28;20027;-68
2024/02/20 04:21:16;;;;;;;13.18;2.72;;;6.70;99.90;;;;;;5116048;27;20475;-68
2024/02/20 04:23:42;;;;;;;9.70;3.08;;;6.70;99.90;;;;;;5114423;27;20049;-69
2024/02/20 04:26:07;;;;;;;14.25;2.88;;;6.60;99.90;;;;;;5106431;28;20498;-68
2024/02/20 04:28:35;;;;;;;11.90;3.90;;;6.70;99.90;;;;;;5095310;28;20568;-69
2024/02/20 04:31:04;;;;;;;8.88;2.28;;;6.70;99.90;;;;;;5097658;28;20697;-69
2024/02/20 04:33:30;;;;;;;12.82;2.80;;;6.70;99.90;;;;;;5100178;28;20040;-70
2024/02/20 04:35:56;;;;;;;8.93;2.72;;;6.60;99.90;;;;;;5083950;28;20459;-71
2024/02/20 04:38:22;;;;;;;13.63;2.67;;;6.60;99.90;;;;;;5105220;27;20046;-69
2024/02/20 04:40:49;;;;;;;15.57;3.28;;;6.60;99.90;;;;;;5097021;28;20051;-72
2024/02/20 04:43:14;;;;;;;15.73;2.92;;;6.50;99.90;;;;;;5101223;28;20103;-69
2024/02/20 04:45:40;;;;;;;13.05;2.65;;;6.50;99.90;;;;;;5096977;28;20508;-69
2024/02/20 04:48:07;;;;;;;11.23;2.53;;;6.50;99.90;;;;;;5106181;28;20032;-69
2024/02/20 04:50:33;;;;;;;16.80;3.05;;;6.40;99.90;;;;;;5094001;28;20554;-69
2024/02/20 04:52:59;;;;;;;9.45;2.30;;;6.40;99.90;;;;;;5105791;28;20023;-67
2024/02/20 04:55:26;;;;;;;13.13;2.97;;;6.40;99.90;;;;;;5092668;28;20335;-68
2024/02/20 04:57:52;;;;;;;12.98;3.03;;;6.30;99.90;;;;;;5098697;28;20028;-68
2024/02/20 05:00:18;;;;;;;15.80;3.17;;;6.30;99.90;;;;;;5100427;28;20058;-68
2024/02/20 05:02:44;;;;;;;11.40;2.60;;;6.30;99.90;;;;;;5096918;28;20468;-68
2024/02/20 05:05:10;;;;;;;12.77;2.30;;;6.40;99.90;;;;;;5089074;28;20036;-68
2024/02/20 05:07:36;;;;;;;11.90;2.67;;;6.40;99.90;;;;;;5078177;28;20020;-68
2024/02/20 05:10:02;;;;;;;11.60;2.50;;;6.40;99.90;;;;;;5091400;28;20039;-68
2024/02/20 05:12:28;;;;;;;12.98;2.50;;;6.50;99.90;;;;;;5095826;28;20024;-67
2024/02/20 05:14:53;;;;;;;12.73;2.72;;;6.40;99.90;;;;;;5088273;28;20059;-67
2024/02/20 05:17:19;;;;;;;13.73;2.97;;;6.40;99.90;;;;;;5098788;28;20028;-67
2024/02/20 05:19:44;;;;;;;14.40;3.05;;;6.40;99.90;;;;;;5098196;28;20028;-68
2024/02/20 05:22:12;;;;;;;12.65;3.17;;;6.40;99.90;;;;;;5109036;28;20538;-71
2024/02/20 05:24:38;;;;;;;19.77;3.03;;;6.40;99.90;;;;;;5101258;28;20032;-69
2024/02/20 05:27:04;;;;;;;15.95;2.72;;;6.30;99.90;;;;;;5093473;28;20058;-70
2024/02/20 05:29:30;;;;;;;12.10;2.47;;;6.50;99.90;;;;;;5097892;28;20036;-69
2024/02/20 05:31:59;;;;;;;19.83;3.13;;;6.50;99.90;;;;;;5098366;28;20430;-68
2024/02/20 05:34:24;;;;;;;9.38;2.30;;;6.50;99.90;;;;;;5104138;28;20052;-68
2024/02/20 05:36:50;;;;;;;14.75;2.55;;;6.50;99.90;;;;;;5106201;28;20031;-68
2024/02/20 05:39:16;;;;;;;12.57;2.78;;;6.40;99.90;;;;;;5094836;28;20027;-70
2024/02/20 05:41:42;;;;;;;15.27;2.63;;;6.50;99.90;;;;;;5112577;28;20035;-68
2024/02/20 05:44:07;;;;;;;13.98;2.70;;;6.40;99.90;;;;;;5104633;27;20027;-69
2024/02/20 05:46:33;;;;;;;13.80;2.45;;;6.50;99.90;;;;;;5117594;27;20088;-68
2024/02/20 05:49:00;;;;;;;14.82;2.65;;;6.60;99.90;;;;;;5102399;28;20059;-68
2024/02/20 05:51:27;;;;;;;17.52;3.53;;;6.50;99.90;;;;;;5094762;28;20407;-67
2024/02/20 05:53:53;;;;;;;14.65;2.50;;;6.50;99.90;;;;;;5111594;28;20353;-67
2024/02/20 05:56:19;;;;;;;8.27;2.40;;;6.50;99.90;;;;;;5106303;28;20039;-67
2024/02/20 05:58:45;;;;;;;15.52;2.22;;;6.60;99.90;;;;;;5110277;28;20020;-67
2024/02/20 06:01:11;;;;;;;12.90;2.53;;;6.60;99.90;;;;;;5106406;28;20080;-68
2024/02/20 06:03:41;;;;;;;11.48;2.53;;;6.50;99.90;;;;;;5092910;28;20480;-68
2024/02/20 06:06:07;;;;;;;;;;;6.60;99.90;;;;;;5101640;28;20267;-68
2024/02/20 06:08:41;;;;;;;11.45;2.58;;;6.60;99.90;;;;;;5103816;28;20261;-68
2024/02/20 06:11:15;;;;;;;16.10;2.60;;;6.50;99.90;;;;;;5111157;28;20084;-68
2024/02/20 06:13:41;;;;;;;19.35;3.10;;;6.50;99.90;;;;;;5091360;28;20354;-68
2024/02/20 06:16:07;;;;;;;12.32;2.30;;;6.60;99.90;;;;;;5105319;28;20027;-68
2024/02/20 06:18:33;;;;;;;15.02;2.70;;;6.60;99.90;;;;;;5106946;28;20034;-68
2024/02/20 06:20:58;;;;;;;11.80;2.70;;;6.60;99.90;;;;;;5098905;28;20037;-67
2024/02/20 06:23:24;;;;;;;12.88;2.40;;;6.60;99.90;;;;;;5102956;28;20020;-67
2024/02/20 06:25:50;;;;;;;14.70;2.65;;;6.60;99.90;;;;;;5105587;28;20077;-68
2024/02/20 06:28:17;;;;;;;12.52;2.72;;;6.60;99.90;;;;;;5099051;28;20524;-67
2024/02/20 06:30:42;;;;;;;11.48;2.70;;;6.60;99.90;;;;;;5098661;28;20051;-68
2024/02/20 06:33:08;;;;;;;18.92;3.70;;;6.50;99.90;;;;;;5095929;28;20393;-67
2024/02/20 06:35:34;;;;;;;14.75;3.03;;;6.50;99.90;;;;;;5091700;28;20029;-67
2024/02/20 06:37:59;;;;;;;15.15;2.83;;;6.40;99.90;;;;;;5092611;28;20020;-69
2024/02/20 06:40:25;;;;;;;15.20;2.65;;;6.40;99.90;;;;;;5087906;28;20488;-68
2024/02/20 06:42:51;;;;;;;17.30;2.60;;;6.40;99.90;;;;;;5090198;28;20103;-68
2024/02/20 06:45:16;;;;;;;12.52;2.58;;;6.50;99.90;;;;;;5092062;28;20028;-68
2024/02/20 06:47:45;;;;;;;19.40;3.17;;;6.50;99.90;;;;;;5092822;28;20060;-68
2024/02/20 06:50:12;;;;;;;10.15;2.45;;;6.50;99.90;;;;;;5092038;28;20024;-68
2024/02/20 06:52:40;;;;;;;14.35;2.70;;;6.40;99.90;;;;;;5092322;28;20516;-68
2024/02/20 06:55:08;;;;;;;13.00;2.78;;;6.50;99.90;;;;;;5092049;28;20032;-69
2024/02/20 06:57:35;;;;;;;14.30;2.75;;;6.50;99.90;;;;;;5087362;28;20469;-69
2024/02/20 07:00:04;;;;;;;15.02;2.95;;;6.50;99.90;;;;;;5090802;28;20024;-68
2024/02/20 07:02:30;;;;;;;16.40;2.63;;;6.50;99.90;;;;;;5092224;28;20024;-68
2024/02/20 07:04:56;;;;;;;18.70;3.05;;;6.50;99.90;;;;;;5091790;28;20028;-69
2024/02/20 07:07:22;;;;;;;15.05;3.35;;;6.50;99.90;;;;;;5092105;28;20441;-68
2024/02/20 07:09:48;;;;;;;17.15;3.40;;;6.60;99.90;;;;;;5091361;28;20028;-68
2024/02/20 07:12:13;;;;;;;14.15;2.92;;;6.60;99.90;;;;;;5092765;28;20028;-69
2024/02/20 07:14:39;;;;;;;16.15;2.50;;;6.70;99.90;;;;;;5086812;28;20032;-68
2024/02/20 07:17:05;;;;;;;10.00;2.45;;;6.70;99.90;;;;;;5089613;28;20028;-68
2024/02/20 07:19:30;;;;;;;17.08;2.60;;;6.70;99.90;;;;;;5090725;28;20023;-68
2024/02/20 07:21:59;;;;;;;12.65;2.47;;;6.70;99.90;;;;;;5091685;28;20118;-69
2024/02/20 07:24:24;;;;;;;12.57;2.47;;;6.70;99.90;;;;;;5091328;28;20070;-68
2024/02/20 07:26:50;;;;;;;17.52;3.03;;;6.80;99.90;;;;;;5091028;28;20020;-68
2024/02/20 07:29:19;;;;;;;14.18;2.30;;;6.80;99.90;;;;;;5091998;28;20024;-68
2024/02/20 07:31:45;;;;;;;20.47;4.00;;;6.90;99.90;;;;;;5084809;28;20040;-69
2024/02/20 07:34:11;;;;;;;19.00;3.67;;;6.90;99.90;;;;;;5072765;28;20296;-78
2024/02/20 07:36:37;;;;;;;14.93;2.53;;;6.90;99.90;;;;;;5092526;28;20048;-69
2024/02/20 07:39:04;;;;;;;17.58;2.55;;;6.90;99.90;;;;;;5091004;28;20093;-75
2024/02/20 07:41:30;;;;;;;14.23;2.78;;;7.00;99.90;;;;;;5092740;28;20524;-75
2024/02/20 07:43:55;;;;;;;21.48;2.42;;;7.20;99.90;;;;;;5091154;28;20035;-76
2024/02/20 07:46:21;;;;;;;15.60;2.78;;;7.20;99.90;;;;;;5092218;28;20028;-76
2024/02/20 07:48:47;;;;;;;10.50;2.10;;;7.20;99.90;;;;;;5085703;28;20028;-76
2024/02/20 07:51:13;;;;;;;16.13;2.90;;;7.20;99.90;;;;;;5090796;28;20028;-70
2024/02/20 07:53:39;;;;;;;15.50;2.95;;;7.30;99.90;;;;;;5089155;28;20066;-76
2024/02/20 07:56:08;;;;;;;13.70;2.80;;;7.30;99.90;;;;;;5066081;28;20048;-75
2024/02/20 07:58:37;;;;;;;15.37;2.53;;;7.40;99.90;;;;;;5092210;28;20047;-75
2024/02/20 08:01:04;;;;;;;11.13;3.30;;;7.40;99.90;;;;;;5090263;28;20545;-78
2024/02/20 08:03:30;;;;;;;14.32;2.72;;;7.50;99.90;;;;;;5070031;28;20398;-69
2024/02/20 08:05:55;;;;;;;12.35;2.47;;;7.60;99.90;;;;;;5091868;28;20060;-68
2024/02/20 08:08:21;;;;;;;13.35;2.35;;;7.50;99.90;;;;;;5091912;28;20024;-67
2024/02/20 08:10:46;;;;;;;19.50;3.30;;;7.50;99.90;;;;;;5090033;28;20406;-69
2024/02/20 08:13:12;;;;;;;19.95;3.38;;;7.50;99.90;;;;;;5091350;28;20095;-68
2024/02/20 08:15:38;;;;;;;14.27;2.97;;;7.50;99.90;;;;;;5087879;28;20032;-68
2024/02/20 08:18:04;;;;;;;14.10;3.50;;;7.50;99.90;;;;;;5090643;28;20028;-69
2024/02/20 08:20:29;;;;;;;12.75;2.83;;;7.60;99.90;;;;;;5090972;28;20028;-69
2024/02/20 08:22:55;;;;;;;16.48;3.38;;;7.70;99.90;;;;;;5090615;28;20125;-69
2024/02/20 08:25:20;;;;;;;16.50;3.20;;;7.80;99.90;;;;;;5090257;28;20330;-68
2024/02/20 08:27:46;;;;;;;18.27;3.05;;;8.00;99.90;;;;;;5090290;28;20024;-69
2024/02/20 08:30:12;;;;;;;16.70;3.85;;;8.20;99.90;;;;;;5084587;28;20543;-68
2024/02/20 08:32:43;;;;;;;11.38;2.53;;;8.30;99.90;;;;;;5090318;28;20043;-68
2024/02/20 08:35:09;;;;;;;21.45;3.28;;;8.30;99.90;;;;;;5090311;28;20474;-68
2024/02/20 08:37:34;;;;;;;21.15;3.22;;;8.40;99.90;;;;;;5090395;28;20032;-69
2024/02/20 08:40:00;;;;;;;19.38;3.25;;;8.50;99.90;;;;;;5089237;28;20036;-70
2024/02/20 08:42:26;;;;;;;15.82;2.97;;;8.60;99.90;;;;;;5091007;28;20409;-70
2024/02/20 08:44:52;;;;;;;14.23;3.05;;;8.70;99.90;;;;;;5089312;28;20476;-69
2024/02/20 08:47:17;;;;;;;15.13;2.83;;;8.80;99.90;;;;;;5089390;28;20103;-70
2024/02/20 08:49:44;;;;;;;22.70;3.92;;;9.00;99.90;;;;;;5088942;28;20016;-69
2024/02/20 08:52:10;;;;;;;14.30;3.10;;;9.00;99.90;;;;;;5090412;28;20099;-69
2024/02/20 08:54:35;;;;;;;13.68;2.80;;;9.00;99.90;;;;;;5080922;28;20108;-67
2024/02/20 08:57:02;;;;;;;15.70;3.28;;;9.00;99.90;;;;;;5088661;28;20131;-67
2024/02/20 08:59:28;;;;;;;13.85;2.90;;;9.10;99.90;;;;;;5091598;28;20042;-67
2024/02/20 09:01:53;;;;;;;13.73;2.85;;;9.30;99.90;;;;;;5094198;28;20028;-67
2024/02/20 09:04:19;;;;;;;16.52;3.42;;;9.50;99.90;;;;;;5093596;28;20024;-68
2024/02/20 09:06:46;;;;;;;16.13;3.63;;;9.50;99.90;;;;;;5094304;28;20020;-68
2024/02/20 09:09:12;;;;;;;14.63;3.40;;;9.50;99.90;;;;;;5094180;28;20060;-68
2024/02/20 09:11:37;;;;;;;19.98;3.97;;;9.50;99.90;;;;;;5094782;28;20078;-68
2024/02/20 09:14:03;;;;;;;20.48;4.25;;;9.50;99.90;;;;;;5092735;28;20044;-68
2024/02/20 09:16:28;;;;;;;13.15;3.67;;;9.40;99.90;;;;;;5094523;28;20086;-68
2024/02/20 09:18:54;;;;;;;22.60;3.97;;;9.40;99.90;;;;;;5093132;28;20484;-68
2024/02/20 09:21:19;;;;;;;14.40;2.97;;;9.40;99.90;;;;;;5093720;28;20039;-68
2024/02/20 09:23:45;;;;;;;14.93;3.17;;;9.50;99.90;;;;;;5093416;28;20468;-67
2024/02/20 09:26:13;;;;;;;18.55;3.17;;;9.60;99.90;;;;;;5094207;28;20050;-68
2024/02/20 09:28:39;;;;;;;17.08;2.97;;;9.70;99.90;;;;;;5092666;28;21045;-67
2024/02/20 09:31:06;;;;;;;17.98;3.13;;;9.70;99.90;;;;;;5092974;28;20032;-67
2024/02/20 09:33:32;;;;;;;21.17;3.45;;;9.70;99.90;;;;;;5093879;28;20129;-68
2024/02/20 09:35:58;;;;;;;14.50;3.47;;;9.70;99.90;;;;;;5090194;28;20035;-68
2024/02/20 09:38:23;;;;;;;17.67;3.60;;;9.70;99.90;;;;;;5091450;28;20033;-68
2024/02/20 09:40:49;;;;;;;17.08;3.80;;;9.80;99.90;;;;;;5080550;28;20030;-67
2024/02/20 09:43:19;;;;;;;14.93;2.65;;;9.70;99.90;;;;;;5081016;28;20025;-67
2024/02/20 09:45:45;;;;;;;16.15;2.60;;;9.70;99.90;;;;;;5083121;28;20081;-67
2024/02/20 09:48:14;;;;;;;19.80;3.40;;;9.70;99.90;;;;;;5090307;28;20043;-69
2024/02/20 09:50:42;;;;;;;21.60;3.50;;;9.70;99.90;;;;;;5088075;28;20119;-67
2024/02/20 09:53:09;;;;;;;15.45;3.92;;;9.70;99.90;;;;;;5080419;28;20078;-68
2024/02/20 09:55:35;;;;;;;19.80;3.50;;;9.70;99.90;;;;;;5093670;28;20024;-68
2024/02/20 09:58:01;;;;;;;17.27;2.95;;;9.80;99.90;;;;;;5080013;28;20090;-68
2024/02/20 10:00:27;;;;;;;20.42;3.85;;;9.90;99.90;;;;;;5089750;28;20051;-68
2024/02/20 10:02:53;;;;;;;24.42;4.60;;;10.00;99.90;;;;;;5078758;28;20469;-69
2024/02/20 10:05:19;;;;;;;19.58;3.25;;;10.20;99.90;;;;;;5088628;28;20028;-69
2024/02/20 10:07:45;;;;;;;16.60;3.28;;;10.30;99.90;;;;;;5070940;28;20094;-69
2024/02/20 10:10:12;;;;;;;19.13;3.42;;;10.30;99.90;;;;;;5082940;28;20028;-69
2024/02/20 10:12:39;;;;;;;16.17;3.05;;;10.20;99.90;;;;;;5078834;28;20055;-69
2024/02/20 10:15:09;;;;;;;19.27;3.97;;;10.20;99.90;;;;;;5081592;28;20536;-69
2024/02/20 10:17:36;;;;;;;19.95;4.05;;;10.30;99.90;;;;;;5087435;28;20103;-68
2024/02/20 10:20:23;;;;;;;17.42;4.20;;;10.40;99.90;;;;;;5091273;28;20040;-69
2024/02/20 10:22:49;;;;;;;18.48;3.90;;;10.40;99.90;;;;;;5088102;28;20036;-68
2024/02/20 10:25:14;;;;;;;18.42;3.28;;;10.50;99.90;;;;;;5089468;28;20029;-69
2024/02/20 10:27:42;;;;;;;17.45;3.55;;;10.70;99.90;;;;;;5093537;28;20028;-69
2024/02/20 10:30:08;;;;;;;16.77;4.30;;;10.80;99.90;;;;;;5076749;28;20036;-69
2024/02/20 10:32:36;;;;;;;21.58;3.97;;;10.90;99.90;;;;;;5067350;27;20041;-69
2024/02/20 10:35:03;;;;;;;15.18;2.88;;;10.80;99.90;;;;;;5086043;28;20040;-69
2024/02/20 10:37:28;;;;;;;11.57;2.63;;;10.60;99.90;;;;;;5093459;28;20077;-69
2024/02/20 10:40:08;;;;;;;19.13;3.50;;;10.40;99.90;;;;;;5087535;28;20028;-69
2024/02/20 10:42:36;;;;;;;16.65;3.05;;;10.40;99.90;;;;;;5085467;28;20028;-69
2024/02/20 10:45:11;;;;;;;14.95;2.90;;;10.40;99.90;;;;;;5084006;28;20037;-68
2024/02/20 10:47:44;;;;;;;13.23;2.80;;;10.40;99.90;;;;;;5084877;28;20077;-69
2024/02/20 10:50:12;;;;;;;16.52;2.85;;;10.40;99.90;;;;;;5081960;28;20419;-69
2024/02/20 10:52:39;;;;;;;19.33;3.60;;;10.50;99.90;;;;;;5089470;28;20028;-69
2024/02/20 10:55:15;;;;;;;16.92;3.40;;;10.50;99.90;;;;;;5072739;28;20027;-68
2024/02/20 10:57:42;;;;;;;14.48;2.83;;;10.60;99.90;;;;;;5084876;28;20110;-68
2024/02/20 11:00:09;;;;;;;13.80;2.60;;;10.70;99.90;;;;;;5087897;28;20040;-69
2024/02/20 11:02:42;;;;;;;16.70;3.30;;;10.70;99.90;;;;;;5079254;28;20028;-69
2024/02/20 11:05:13;;;;;;;16.42;3.08;;;10.60;99.90;;;;;;5071923;28;20035;-68
2024/02/20 11:07:39;;;;;;;15.80;2.35;;;10.50;99.90;;;;;;5085914;28;20028;-69
2024/02/20 11:10:17;;;;;;;15.77;3.17;;;10.30;99.90;;;;;;5082033;28;20430;-69
2024/02/20 11:12:43;;;;;;;15.75;2.58;;;10.10;99.90;;;;;;5088286;28;20032;-68
2024/02/20 11:15:11;;;;;;;10.30;3.15;;;10.00;99.90;;;;;;5084152;28;20032;-69
2024/02/20 11:17:38;;;;;;;13.13;2.88;;;9.80;99.90;;;;;;5086488;28;20108;-70
2024/02/20 11:20:14;;;;;;;10.88;2.17;;;9.90;99.90;;;;;;5083244;28;20028;-71
2024/02/20 11:22:42;;;;;;;10.18;2.90;;;9.90;99.90;;;;;;5080289;28;20036;-69
2024/02/20 11:25:09;;;;;;;13.98;2.60;;;10.10;99.90;;;;;;5085303;28;20048;-69
2024/02/20 11:27:43;;;;;;;19.65;3.40;;;10.20;99.90;;;;;;5077398;28;20106;-69
2024/02/20 11:30:20;;;;;;;13.00;2.90;;;10.50;99.90;;;;;;5077687;28;20380;-70
2024/02/20 11:32:53;;;;;;;15.65;2.90;;;10.80;99.90;;;;;;5083663;28;20052;-69
2024/02/20 11:35:30;;;;;;;11.10;2.85;;;11.20;99.90;;;;;;5109559;28;20024;-69
2024/02/20 11:38:03;;;;;;;11.68;2.17;;;11.40;99.90;;;;;;5112018;28;20471;-69
2024/02/20 11:40:29;;;;;;;9.52;2.85;;;11.50;99.90;;;;;;5111764;28;20028;-68
2024/02/20 11:42:57;;;;;;;19.67;3.20;;;11.50;99.90;;;;;;5110561;27;20121;-68
2024/02/20 11:45:29;;;;;;;23.05;2.90;;;11.60;99.90;;;;;;5098127;28;20034;-68
2024/02/20 11:47:57;;;;;;;14.50;2.65;;;11.50;99.90;;;;;;5102023;28;20035;-68
2024/02/20 11:50:24;;;;;;;18.63;3.17;;;11.20;99.90;;;;;;5103076;28;20032;-68
2024/02/20 11:53:07;;;;;;;13.20;3.47;;;11.10;99.90;;;;;;5095348;28;20035;-68
2024/02/20 11:55:33;;;;;;;15.18;3.22;;;10.80;99.90;;;;;;5100877;28;20085;-68
2024/02/20 11:58:00;;;;;;;12.50;3.00;;;10.60;99.90;;;;;;5104816;28;20522;-68
2024/02/20 12:00:35;;;;;;;13.75;2.80;;;10.50;99.90;;;;;;5101611;28;20032;-68
2024/02/20 12:03:04;;;;;;;12.75;2.75;;;10.30;99.90;;;;;;5111150;28;20198;-68
2024/02/20 12:05:37;;;;;;;14.07;2.78;;;10.20;99.90;;;;;;5111393;28;20108;-68
2024/02/20 12:08:16;;;;;;;13.32;3.08;;;10.20;99.90;;;;;;5102389;28;20027;-68
2024/02/20 12:10:42;;;;;;;13.50;2.50;;;10.20;99.90;;;;;;5106673;28;20043;-67
2024/02/20 12:13:18;;;;;;;13.93;2.47;;;10.30;99.90;;;;;;5111797;28;20048;-69
2024/02/20 12:15:49;;;;;;;14.15;2.70;;;10.30;99.90;;;;;;5104906;28;20027;-68
2024/02/20 12:18:27;;;;;;;;;;;10.30;99.90;;;;;;5111370;28;20376;-69
2024/02/20 12:21:06;;;;;;;14.77;2.83;;;10.40;99.90;;;;;;5110639;27;20341;-69
2024/02/20 12:23:32;;;;;;;13.85;3.65;;;10.40;99.90;;;;;;5098085;28;20024;-68
2024/02/20 12:26:07;;;;;;;19.20;3.05;;;10.50;99.90;;;;;;5110929;28;20111;-69
2024/02/20 12:28:34;;;;;;;13.27;3.00;;;10.50;99.90;;;;;;5109565;28;20102;-68
2024/02/20 12:31:00;;;;;;;12.13;2.80;;;10.50;99.90;;;;;;5108659;28;20046;-68
2024/02/20 12:33:26;;;;;;;9.35;2.90;;;10.40;99.90;;;;;;5108457;28;20190;-68
2024/02/20 12:35:54;;;;;;;13.73;3.03;;;10.50;99.90;;;;;;5098372;28;20023;-69
2024/02/20 12:38:19;;;;;;;10.65;2.17;;;10.50;99.90;;;;;;5108395;28;20475;-69
2024/02/20 12:40:45;;;;;;;13.98;2.47;;;10.40;99.90;;;;;;5098231;28;20103;-69
2024/02/20 12:43:12;;;;;;;8.68;2.28;;;10.30;99.90;;;;;;5105115;28;20031;-69
2024/02/20 12:45:38;;;;;;;12.52;2.60;;;10.20;99.90;;;;;;5110374;28;20476;-69